createdAt,value
2022-12-22T00:01:49.766Z,8.09
2022-12-22T00:04:23.067Z,8.03
2022-12-22T00:06:52.690Z,8.13
2022-12-22T00:09:25.469Z,8.38
2022-12-22T00:11:58.230Z,8.30
2022-12-22T00:14:25.498Z,8.63
2022-12-22T00:16:52.545Z,8.98
2022-12-22T00:19:25.553Z,8.72
2022-12-22T00:21:55.121Z,9.03
2022-12-22T00:24:22.226Z,9.30
2022-12-22T00:26:55.244Z,8.77
2022-12-22T00:29:22.358Z,8.48
2022-12-22T00:31:49.471Z,8.43
2022-12-22T00:34:21.983Z,8.35
2022-12-22T00:36:49.035Z,8.07
2022-12-22T00:39:16.027Z,8.02
2022-12-22T00:41:43.160Z,8.09
2022-12-22T00:44:12.624Z,7.74
2022-12-22T00:46:41.160Z,7.79
2022-12-22T00:49:10.816Z,7.91
2022-12-22T00:51:37.753Z,7.80
2022-12-22T00:54:08.128Z,7.82
2022-12-22T00:56:41.153Z,7.90
2022-12-22T00:59:11.757Z,7.81
2022-12-22T01:01:39.378Z,7.78
2022-12-22T01:04:12.253Z,8.00
2022-12-22T01:06:39.369Z,7.90
2022-12-22T01:09:11.940Z,7.95
2022-12-22T01:11:38.947Z,7.89
2022-12-22T01:14:12.626Z,7.82
2022-12-22T01:16:39.753Z,7.99
2022-12-22T01:19:08.831Z,8.09
2022-12-22T01:21:36.288Z,8.07
2022-12-22T01:24:05.736Z,8.08
2022-12-22T01:26:35.467Z,8.35
2022-12-22T01:29:02.502Z,8.64
2022-12-22T01:31:53.922Z,8.39
2022-12-22T01:34:20.878Z,8.63
2022-12-22T01:36:53.592Z,9.00
2022-12-22T01:39:25.279Z,8.60
2022-12-22T01:41:53.224Z,8.71
2022-12-22T01:44:20.337Z,8.73
2022-12-22T01:46:48.107Z,8.64
2022-12-22T01:49:28.869Z,8.79
2022-12-22T01:51:55.833Z,8.91
2022-12-22T01:54:28.726Z,8.91
2022-12-22T01:57:01.704Z,8.62
2022-12-22T01:59:31.086Z,8.82
2022-12-22T02:02:01.634Z,8.66
2022-12-22T02:04:34.895Z,8.48
2022-12-22T02:07:07.372Z,8.43
2022-12-22T02:10:25.920Z,8.93
2022-12-22T02:13:33.972Z,8.88
2022-12-22T02:16:42.856Z,8.84
2022-12-22T02:19:41.816Z,8.58
2022-12-22T02:22:49.858Z,8.84
2022-12-22T02:25:28.925Z,8.59
2022-12-22T02:27:58.747Z,8.49
2022-12-22T02:30:25.945Z,8.80
2022-12-22T02:32:55.622Z,8.61
2022-12-22T02:35:22.882Z,8.57
2022-12-22T02:38:29.262Z,8.57
2022-12-22T02:41:21.769Z,8.97
2022-12-22T02:44:41.937Z,8.97
2022-12-22T02:47:19.372Z,8.76
2022-12-22T02:50:09.639Z,8.38
2022-12-22T02:52:56.226Z,8.13
2022-12-22T02:55:28.992Z,8.36
2022-12-22T02:58:07.805Z,8.86
2022-12-22T03:00:48.320Z,8.87
2022-12-22T03:03:21.656Z,8.45
2022-12-22T03:05:48.825Z,8.84
2022-12-22T03:08:21.796Z,8.45
2022-12-22T03:10:51.471Z,8.48
2022-12-22T03:13:18.575Z,8.44
2022-12-22T03:15:45.507Z,8.61
2022-12-22T03:18:12.802Z,8.49
2022-12-22T03:20:39.801Z,8.35
2022-12-22T03:23:12.800Z,8.31
2022-12-22T03:25:47.697Z,8.23
2022-12-22T03:28:17.108Z,8.23
2022-12-22T03:30:44.200Z,8.09
2022-12-22T03:33:16.130Z,8.36
2022-12-22T03:35:48.792Z,8.20
2022-12-22T03:38:15.824Z,8.25
2022-12-22T03:40:44.509Z,8.27
2022-12-22T03:43:12.894Z,8.29
2022-12-22T03:45:40.270Z,8.26
2022-12-22T03:48:06.990Z,8.26
2022-12-22T03:50:36.677Z,8.20
2022-12-22T03:53:04.461Z,8.03
2022-12-22T03:55:37.159Z,8.08
2022-12-22T03:58:04.127Z,7.92
2022-12-22T04:00:36.901Z,8.16
2022-12-22T04:03:06.811Z,8.15
2022-12-22T04:05:33.858Z,8.04
2022-12-22T04:08:06.636Z,8.06
2022-12-22T04:10:33.619Z,8.22
2022-12-22T04:13:22.710Z,8.27
2022-12-22T04:15:58.922Z,8.59
2022-12-22T04:18:36.332Z,8.63
2022-12-22T04:21:03.825Z,8.53
2022-12-22T04:23:34.180Z,8.48
2022-12-22T04:26:01.156Z,8.44
2022-12-22T04:28:28.204Z,8.50
2022-12-22T04:30:55.206Z,8.46
2022-12-22T04:33:22.148Z,8.30
2022-12-22T04:35:54.973Z,8.23
2022-12-22T04:38:27.723Z,8.21
2022-12-22T04:40:54.756Z,8.18
2022-12-22T04:43:21.754Z,8.20
2022-12-22T04:45:52.783Z,8.07
2022-12-22T04:48:23.133Z,8.20
2022-12-22T04:50:59.601Z,8.26
2022-12-22T04:53:32.525Z,8.24
2022-12-22T04:56:06.361Z,8.51
2022-12-22T04:58:36.211Z,8.61
2022-12-22T05:01:18.585Z,8.61
2022-12-22T05:03:51.465Z,8.59
2022-12-22T05:06:18.876Z,8.49
2022-12-22T05:08:45.845Z,8.41
2022-12-22T05:11:16.127Z,8.47
2022-12-22T05:13:43.206Z,8.26
2022-12-22T05:16:12.027Z,8.60
2022-12-22T05:18:45.452Z,8.93
2022-12-22T05:21:22.864Z,8.66
2022-12-22T05:23:53.282Z,8.53
2022-12-22T05:26:22.201Z,8.39
2022-12-22T05:28:49.202Z,8.47
2022-12-22T05:31:23.232Z,8.66
2022-12-22T05:33:50.614Z,8.57
2022-12-22T05:36:17.520Z,8.33
2022-12-22T05:38:44.583Z,8.57
2022-12-22T05:41:13.049Z,8.42
2022-12-22T05:43:40.115Z,8.29
2022-12-22T05:46:08.844Z,8.38
2022-12-22T05:48:38.903Z,8.34
2022-12-22T05:51:12.183Z,8.38
2022-12-22T05:53:39.359Z,8.47
2022-12-22T05:56:12.641Z,8.46
2022-12-22T05:58:45.434Z,8.38
2022-12-22T06:01:18.147Z,8.43
2022-12-22T06:03:54.744Z,8.55
2022-12-22T06:06:26.598Z,8.57
2022-12-22T06:08:56.265Z,8.63
2022-12-22T06:11:23.952Z,8.59
2022-12-22T06:13:56.737Z,8.50
2022-12-22T06:16:24.042Z,8.50
2022-12-22T06:18:51.151Z,8.53
2022-12-22T06:21:18.171Z,8.43
2022-12-22T06:23:45.168Z,8.43
2022-12-22T06:26:13.043Z,8.33
2022-12-22T06:28:40.088Z,8.37
2022-12-22T06:31:06.890Z,8.37
2022-12-22T06:33:34.750Z,8.41
2022-12-22T06:36:05.750Z,8.48
2022-12-22T06:38:32.803Z,8.43
2022-12-22T06:41:02.575Z,8.59
2022-12-22T06:43:29.517Z,8.55
2022-12-22T06:46:02.312Z,8.46
2022-12-22T06:48:29.264Z,8.37
2022-12-22T06:51:04.134Z,8.35
2022-12-22T06:53:32.001Z,8.25
2022-12-22T06:55:58.941Z,8.19
2022-12-22T06:58:25.940Z,8.24
2022-12-22T07:00:55.934Z,8.09
2022-12-22T07:03:23.192Z,8.18
2022-12-22T07:05:56.166Z,8.23
2022-12-22T07:08:23.654Z,8.33
2022-12-22T07:10:50.751Z,8.44
2022-12-22T07:13:17.709Z,8.63
2022-12-22T07:15:45.447Z,8.61
2022-12-22T07:18:14.027Z,8.66
2022-12-22T07:20:41.929Z,8.71
2022-12-22T07:23:09.011Z,8.77
2022-12-22T07:25:38.050Z,9.14
2022-12-22T07:28:08.725Z,8.94
2022-12-22T07:30:41.444Z,9.06
2022-12-22T07:33:14.283Z,8.98
2022-12-22T07:35:41.318Z,9.08
2022-12-22T07:38:08.477Z,8.80
2022-12-22T07:40:39.573Z,8.81
2022-12-22T07:43:08.543Z,8.98
2022-12-22T07:45:35.318Z,8.94
2022-12-22T07:48:02.703Z,9.03
2022-12-22T07:50:31.762Z,9.08
2022-12-22T07:53:01.546Z,9.28
2022-12-22T07:55:30.163Z,9.23
2022-12-22T07:58:02.869Z,9.23
2022-12-22T08:00:30.331Z,9.19
2022-12-22T08:02:57.700Z,9.20
2022-12-22T08:05:25.724Z,9.21
2022-12-22T08:07:53.017Z,9.25
2022-12-22T08:10:25.193Z,9.10
2022-12-22T08:12:52.304Z,9.13
2022-12-22T08:15:19.274Z,8.96
2022-12-22T08:17:48.918Z,8.88
2022-12-22T08:20:16.086Z,8.75
2022-12-22T08:22:48.780Z,8.90
2022-12-22T08:25:15.892Z,8.84
2022-12-22T08:27:49.755Z,8.85
2022-12-22T08:30:16.794Z,8.96
2022-12-22T08:32:43.912Z,8.98
2022-12-22T08:35:16.631Z,8.95
2022-12-22T08:37:43.591Z,8.71
2022-12-22T08:40:15.292Z,8.60
2022-12-22T08:42:48.184Z,8.54
2022-12-22T08:45:15.336Z,8.68
2022-12-22T08:47:44.963Z,8.76
2022-12-22T08:50:11.947Z,8.98
2022-12-22T08:52:39.009Z,8.82
2022-12-22T08:55:07.206Z,8.71
2022-12-22T08:57:34.699Z,8.75
2022-12-22T09:00:01.708Z,8.91
2022-12-22T09:02:35.259Z,8.71
2022-12-22T09:05:02.414Z,8.62
2022-12-22T09:07:35.247Z,8.77
2022-12-22T09:10:09.481Z,8.69
2022-12-22T09:12:36.918Z,8.56
2022-12-22T09:15:07.416Z,8.67
2022-12-22T09:17:34.953Z,8.73
2022-12-22T09:20:02.657Z,8.83
2022-12-22T09:22:35.424Z,8.83
2022-12-22T09:25:02.397Z,8.87
2022-12-22T09:27:35.102Z,8.78
2022-12-22T09:30:08.639Z,8.73
2022-12-22T09:32:35.979Z,8.81
2022-12-22T09:35:02.989Z,8.88
2022-12-22T09:37:30.092Z,8.97
2022-12-22T09:40:02.934Z,9.14
2022-12-22T09:42:30.252Z,9.17
2022-12-22T09:44:56.940Z,9.46
2022-12-22T09:47:34.967Z,9.73
2022-12-22T09:50:01.993Z,9.91
2022-12-22T09:52:46.521Z,10.05
2022-12-22T09:55:45.523Z,10.07
2022-12-22T09:58:33.402Z,10.09
2022-12-22T10:01:23.232Z,9.41
2022-12-22T10:04:29.036Z,9.08
2022-12-22T10:07:27.640Z,9.24
2022-12-22T10:10:24.387Z,9.42
2022-12-22T10:13:01.693Z,9.29
2022-12-22T10:15:39.551Z,9.36
2022-12-22T10:18:20.073Z,9.26
2022-12-22T10:21:24.958Z,9.40
2022-12-22T10:23:53.056Z,9.44
2022-12-22T10:26:29.034Z,9.04
2022-12-22T10:29:11.616Z,9.15
2022-12-22T10:31:57.001Z,9.32
2022-12-22T10:34:32.305Z,9.34
2022-12-22T10:37:03.293Z,9.21
2022-12-22T10:39:49.924Z,9.22
2022-12-22T10:42:17.391Z,9.35
2022-12-22T10:44:45.867Z,9.25
2022-12-22T10:47:18.323Z,9.18
2022-12-22T10:49:46.593Z,9.32
2022-12-22T10:52:27.672Z,9.21
2022-12-22T10:55:22.858Z,9.33
2022-12-22T10:57:50.507Z,9.23
2022-12-22T11:00:46.705Z,9.31
2022-12-22T11:03:22.425Z,9.34
2022-12-22T11:05:54.019Z,9.55
2022-12-22T11:08:21.408Z,9.40
2022-12-22T11:11:05.703Z,9.30
2022-12-22T11:14:12.892Z,9.46
2022-12-22T11:16:51.817Z,9.63
2022-12-22T11:19:43.804Z,9.73
2022-12-22T11:22:33.504Z,9.96
2022-12-22T11:25:19.789Z,9.85
2022-12-22T11:28:14.295Z,10.08
2022-12-22T11:31:39.796Z,9.85
2022-12-22T11:34:43.506Z,9.81
2022-12-22T11:37:45.415Z,9.84
2022-12-22T11:40:35.735Z,9.58
2022-12-22T11:43:37.575Z,9.71
2022-12-22T11:46:35.568Z,9.71
2022-12-22T11:49:37.182Z,9.66
2022-12-22T11:52:40.822Z,9.52
2022-12-22T11:55:35.148Z,9.70
2022-12-22T11:58:13.900Z,9.85
2022-12-22T12:01:14.879Z,9.97
2022-12-22T12:04:12.800Z,10.20
2022-12-22T12:11:07.221Z,10.26
2022-12-22T12:14:04.818Z,9.98
2022-12-22T12:16:38.910Z,10.00
2022-12-22T12:19:53.646Z,10.04
2022-12-22T12:22:57.526Z,9.96
2022-12-22T12:25:42.213Z,9.99
2022-12-22T12:28:47.785Z,9.82
2022-12-22T12:31:26.226Z,10.01
2022-12-22T12:33:55.596Z,9.91
2022-12-22T12:36:44.752Z,9.87
2022-12-22T12:39:23.155Z,9.83
2022-12-22T12:42:30.215Z,9.90
2022-12-22T12:44:57.141Z,9.77
2022-12-22T12:47:29.931Z,9.78
2022-12-22T12:50:33.904Z,9.66
2022-12-22T12:53:10.630Z,9.66
2022-12-22T12:55:55.482Z,9.54
2022-12-22T12:59:00.613Z,9.40
2022-12-22T13:01:42.097Z,9.43
2022-12-22T13:04:53.100Z,9.49
2022-12-22T13:08:06.023Z,9.46
2022-12-22T13:10:43.094Z,9.51
2022-12-22T13:13:12.064Z,9.46
2022-12-22T13:15:41.888Z,9.54
2022-12-22T13:18:47.433Z,9.55
2022-12-22T13:24:26.927Z,9.51
2022-12-22T13:27:07.212Z,9.52
2022-12-22T13:29:43.422Z,9.69
2022-12-22T13:32:28.624Z,9.64
2022-12-22T13:35:33.850Z,9.55
2022-12-22T13:38:02.853Z,9.63
2022-12-22T13:40:40.379Z,9.38
2022-12-22T13:43:13.878Z,9.40
2022-12-22T13:45:56.729Z,9.44
2022-12-22T13:48:46.723Z,9.30
2022-12-22T13:51:30.205Z,9.42
2022-12-22T13:54:08.413Z,9.41
2022-12-22T13:56:54.193Z,9.53
2022-12-22T13:59:36.809Z,9.64
2022-12-22T14:02:21.754Z,9.66
2022-12-22T14:05:11.590Z,9.66
2022-12-22T14:08:05.312Z,9.83
2022-12-22T14:10:41.886Z,9.62
2022-12-22T14:13:14.525Z,9.72
2022-12-22T14:15:46.949Z,9.80
2022-12-22T14:18:16.521Z,9.84
2022-12-22T14:20:46.187Z,9.73
2022-12-22T14:23:16.887Z,9.43
2022-12-22T14:25:44.161Z,9.61
2022-12-22T14:28:35.404Z,9.66
2022-12-22T14:31:03.202Z,9.68
2022-12-22T14:33:37.963Z,9.94
2022-12-22T14:36:22.706Z,9.67
2022-12-22T14:38:56.865Z,9.55
2022-12-22T14:41:32.539Z,9.66
2022-12-22T14:44:05.478Z,9.71
2022-12-22T14:46:38.625Z,9.68
2022-12-22T14:49:05.706Z,9.40
2022-12-22T14:51:32.473Z,9.31
2022-12-22T14:54:00.379Z,9.49
2022-12-22T14:56:27.620Z,9.47
2022-12-22T14:59:11.410Z,9.44
2022-12-22T15:01:38.617Z,9.66
2022-12-22T15:04:31.978Z,9.47
2022-12-22T15:07:45.833Z,9.40
2022-12-22T15:10:18.426Z,9.39
2022-12-22T15:12:46.412Z,9.55
2022-12-22T15:15:18.237Z,9.54
2022-12-22T15:17:49.329Z,9.43
2022-12-22T15:20:39.666Z,9.27
2022-12-22T15:23:15.868Z,9.42
2022-12-22T15:25:42.893Z,9.21
2022-12-22T15:28:09.791Z,9.20
2022-12-22T15:30:37.231Z,9.20
2022-12-22T15:33:04.741Z,9.16
2022-12-22T15:35:33.001Z,9.33
2022-12-22T15:38:25.798Z,9.44
2022-12-22T15:40:52.897Z,9.38
2022-12-22T15:43:55.748Z,9.36
2022-12-22T15:46:06.832Z,9.54
2022-12-22T15:48:35.923Z,9.56
2022-12-22T15:51:03.299Z,9.37
2022-12-22T15:53:36.363Z,9.49
2022-12-22T15:56:03.861Z,9.53
2022-12-22T15:58:35.450Z,9.52
2022-12-22T16:01:09.957Z,9.43
2022-12-22T16:03:37.115Z,9.40
2022-12-22T16:06:06.307Z,9.44
2022-12-22T16:08:37.805Z,9.50
2022-12-22T16:11:06.099Z,9.45
2022-12-22T16:13:37.641Z,9.45
2022-12-22T16:16:09.573Z,9.51
2022-12-22T16:18:37.295Z,9.52
2022-12-22T16:21:07.278Z,9.47
2022-12-22T16:23:44.766Z,9.46
2022-12-22T16:26:16.244Z,9.64
2022-12-22T16:28:43.383Z,9.53
2022-12-22T16:31:33.255Z,9.58
2022-12-22T16:34:05.080Z,9.59
2022-12-22T16:36:38.048Z,9.81
2022-12-22T16:39:05.082Z,9.90
2022-12-22T16:41:32.462Z,9.54
2022-12-22T16:44:05.660Z,9.72
2022-12-22T16:46:36.886Z,9.76
2022-12-22T16:49:09.366Z,9.90
2022-12-22T16:55:39.216Z,9.71
2022-12-22T16:58:13.564Z,9.72
2022-12-22T17:00:43.303Z,9.65
2022-12-22T17:03:25.078Z,9.74
2022-12-22T17:06:00.004Z,9.73
2022-12-22T17:08:41.789Z,9.74
2022-12-22T17:11:26.093Z,9.68
2022-12-22T17:13:54.259Z,9.65
2022-12-22T17:16:22.245Z,9.68
2022-12-22T17:18:49.580Z,9.74
2022-12-22T17:21:19.395Z,9.76
2022-12-22T17:23:53.445Z,9.79
2022-12-22T17:26:23.105Z,9.64
2022-12-22T17:28:50.141Z,9.55
2022-12-22T17:31:18.709Z,9.81
2022-12-22T17:33:48.386Z,9.38
2022-12-22T17:36:36.716Z,9.43
2022-12-22T17:39:06.977Z,9.25
2022-12-22T17:41:34.510Z,9.27
2022-12-22T17:44:01.587Z,9.58
2022-12-22T17:46:28.686Z,9.44
2022-12-22T17:48:57.078Z,9.33
2022-12-22T17:51:27.104Z,9.06
2022-12-22T17:53:55.002Z,9.10
2022-12-22T17:56:23.735Z,9.37
2022-12-22T17:58:50.559Z,9.35
2022-12-22T18:01:23.006Z,9.20
2022-12-22T18:03:49.922Z,9.31
2022-12-22T18:06:18.184Z,9.01
2022-12-22T18:08:45.339Z,8.71
2022-12-22T18:11:12.152Z,8.80
2022-12-22T18:13:38.965Z,8.66
2022-12-22T18:16:10.940Z,8.60
2022-12-22T18:18:38.282Z,8.42
2022-12-22T18:21:07.897Z,8.47
2022-12-22T18:23:47.751Z,8.39
2022-12-22T18:26:21.824Z,8.37
2022-12-22T18:28:54.898Z,8.39
2022-12-22T18:31:23.819Z,8.41
2022-12-22T18:33:53.558Z,8.25
2022-12-22T18:36:31.252Z,8.28
2022-12-22T18:38:58.687Z,8.20
2022-12-22T18:41:26.062Z,8.19
2022-12-22T18:43:58.981Z,8.17
2022-12-22T18:46:26.211Z,8.06
2022-12-22T18:48:59.041Z,8.02
2022-12-22T18:51:33.269Z,8.09
2022-12-22T18:54:01.270Z,8.05
2022-12-22T18:56:28.269Z,8.12
2022-12-22T18:58:57.852Z,8.02
2022-12-22T19:01:26.230Z,7.97
2022-12-22T19:03:55.748Z,7.96
2022-12-22T19:06:22.573Z,7.93
2022-12-22T19:08:50.239Z,7.85
2022-12-22T19:11:18.580Z,7.84
2022-12-22T19:13:46.758Z,7.86
2022-12-22T19:16:23.188Z,7.82
2022-12-22T19:18:50.316Z,7.83
2022-12-22T19:21:17.810Z,7.83
2022-12-22T19:23:45.218Z,7.82
2022-12-22T19:26:20.749Z,7.87
2022-12-22T19:28:48.297Z,7.92
2022-12-22T19:31:41.588Z,7.90
2022-12-22T19:34:15.537Z,8.10
2022-12-22T19:36:47.359Z,8.09
2022-12-22T19:39:14.112Z,8.09
2022-12-22T19:41:50.301Z,7.96
2022-12-22T19:44:25.868Z,7.87
2022-12-22T19:46:53.432Z,7.84
2022-12-22T19:49:23.463Z,7.99
2022-12-22T19:51:51.470Z,7.94
2022-12-22T19:54:18.363Z,7.85
2022-12-22T19:56:54.814Z,8.01
2022-12-22T19:59:32.367Z,7.93
2022-12-22T20:02:02.764Z,8.00
2022-12-22T20:04:29.676Z,7.96
2022-12-22T20:06:56.861Z,8.04
2022-12-22T20:09:23.582Z,8.09
2022-12-22T20:11:50.298Z,8.25
2022-12-22T20:14:17.634Z,8.08
2022-12-22T20:16:44.482Z,7.90
2022-12-22T20:21:54.464Z,8.05
2022-12-22T20:24:27.370Z,7.84
2022-12-22T20:27:18.296Z,7.90
2022-12-22T20:29:45.416Z,7.74
2022-12-22T20:32:16.122Z,7.67
2022-12-22T20:34:45.327Z,7.78
2022-12-22T20:37:16.113Z,7.87
2022-12-22T20:39:43.301Z,7.90
2022-12-22T20:42:37.548Z,7.88
2022-12-22T20:45:12.109Z,8.16
2022-12-22T20:47:44.994Z,7.93
2022-12-22T20:50:25.288Z,7.97
2022-12-22T20:52:52.732Z,7.67
2022-12-22T20:55:21.662Z,7.78
2022-12-22T20:57:51.409Z,7.74
2022-12-22T21:00:23.000Z,7.87
2022-12-22T21:03:02.060Z,7.68
2022-12-22T21:05:29.258Z,7.62
2022-12-22T21:07:56.084Z,7.53
2022-12-22T21:10:24.693Z,7.71
2022-12-22T21:12:54.385Z,7.62
2022-12-22T21:15:27.187Z,7.60
2022-12-22T21:17:58.748Z,7.70
2022-12-22T21:20:29.639Z,7.65
2022-12-22T21:23:01.292Z,7.56
2022-12-22T21:25:28.274Z,7.81
2022-12-22T21:27:55.173Z,7.66
2022-12-22T21:30:26.419Z,7.55
2022-12-22T21:32:53.234Z,7.49
2022-12-22T21:35:25.402Z,7.39
2022-12-22T21:37:52.454Z,7.28
2022-12-22T21:40:30.862Z,7.45
2022-12-22T21:42:57.631Z,7.34
2022-12-22T21:45:38.186Z,7.51
2022-12-22T21:48:15.509Z,7.46
2022-12-22T21:50:47.293Z,7.47
2022-12-22T21:53:21.564Z,7.55
2022-12-22T21:55:49.897Z,7.66
2022-12-22T21:58:16.908Z,7.65
2022-12-22T22:00:48.377Z,7.69
2022-12-22T22:03:18.135Z,7.69
2022-12-22T22:05:45.208Z,7.59
2022-12-22T22:08:12.590Z,7.57
2022-12-22T22:10:45.478Z,7.60
2022-12-22T22:13:14.264Z,7.57
2022-12-22T22:15:43.954Z,7.47
2022-12-22T22:18:19.922Z,7.53
2022-12-22T22:20:47.042Z,7.79
2022-12-22T22:23:14.527Z,7.78
2022-12-22T22:25:44.062Z,7.92
2022-12-22T22:28:13.991Z,7.98
2022-12-22T22:30:41.359Z,7.80
2022-12-22T22:33:14.202Z,7.90
2022-12-22T22:35:41.292Z,7.96
2022-12-22T22:38:12.532Z,8.00
2022-12-22T22:40:45.637Z,8.17
2022-12-22T22:43:15.649Z,7.88
2022-12-22T22:45:42.766Z,7.82
2022-12-22T22:48:18.756Z,8.01
2022-12-22T22:50:51.761Z,8.01
2022-12-22T22:53:21.320Z,8.12
2022-12-22T22:55:51.005Z,8.17
2022-12-22T22:58:21.437Z,8.30
2022-12-22T23:00:50.958Z,8.24
2022-12-22T23:03:23.786Z,8.29
2022-12-22T23:06:17.002Z,8.35
2022-12-22T23:08:47.835Z,8.30
2022-12-22T23:11:16.043Z,8.39
2022-12-22T23:13:43.087Z,8.56
2022-12-22T23:16:11.068Z,8.81
2022-12-22T23:18:38.729Z,8.79
2022-12-22T23:21:06.635Z,8.90
2022-12-22T23:23:34.267Z,8.51
2022-12-22T23:26:01.470Z,8.46
2022-12-22T23:28:30.536Z,8.57
2022-12-22T23:30:58.145Z,8.48
2022-12-22T23:33:26.299Z,8.53
2022-12-22T23:35:53.537Z,8.66
2022-12-22T23:38:20.950Z,8.84
2022-12-22T23:40:53.054Z,8.63
2022-12-22T23:44:05.316Z,8.79
2022-12-22T23:46:32.482Z,9.02
2022-12-22T23:49:05.490Z,9.02
2022-12-22T23:51:57.801Z,9.03
2022-12-22T23:54:24.940Z,8.78
2022-12-22T23:56:52.420Z,8.74
2022-12-22T23:59:25.110Z,9.19
